Terminal Aerodrome Forecast
Issued by NWS Blacksburg, VA

Home | Current Version | Previous Version | Text Only | Print | Product List | Glossary On
Versions: 1 2 3 4 5 6 7 8 9 10 11 12 13 14 15
000
FTUS41 KRNK 232320
TAFDAN
TAF
KDAN 232320Z 2400/2424 VRB03KT P6SM SKC
     FM241600 21007KT P6SM SCT250
     FM241800 21011KT P6SM SCT060
     FM242300 20006KT P6SM SCT250=

USA.gov is the U.S. government's official web portal to all federal, state and local government web resources and services.